createdAt,value
2022-09-30T00:01:42.571Z,10.00
2022-09-30T00:04:14.514Z,10.00
2022-09-30T00:06:42.822Z,9.90
2022-09-30T00:09:13.128Z,9.70
2022-09-30T00:11:43.120Z,9.70
2022-09-30T00:14:17.394Z,9.50
2022-09-30T00:16:46.039Z,9.40
2022-09-30T00:19:14.696Z,9.40
2022-09-30T00:21:42.864Z,9.30
2022-09-30T00:24:11.016Z,9.30
2022-09-30T00:26:39.044Z,9.20
2022-09-30T00:29:07.570Z,9.20
2022-09-30T00:31:37.242Z,9.20
2022-09-30T00:34:08.752Z,9.20
2022-09-30T00:36:39.178Z,9.10
2022-09-30T00:39:09.334Z,9.10
2022-09-30T00:41:38.783Z,9.10
2022-09-30T00:44:44.368Z,9.10
2022-09-30T00:47:44.377Z,9.10
2022-09-30T00:50:21.957Z,9.10
2022-09-30T00:52:53.445Z,9.00
2022-09-30T00:55:47.583Z,9.00
2022-09-30T00:58:22.338Z,9.00
2022-09-30T01:00:52.056Z,8.90
2022-09-30T01:03:23.197Z,8.80
2022-09-30T01:05:52.567Z,8.70
2022-09-30T01:08:21.811Z,8.70
2022-09-30T01:10:49.989Z,8.60
2022-09-30T01:13:20.852Z,8.50
2022-09-30T01:16:06.667Z,8.50
2022-09-30T01:18:48.611Z,8.40
2022-09-30T01:21:58.004Z,8.40
2022-09-30T01:25:08.693Z,8.40
2022-09-30T01:28:03.364Z,8.30
2022-09-30T01:30:50.382Z,8.30
2022-09-30T01:33:28.079Z,8.20
2022-09-30T01:36:12.226Z,8.20
2022-09-30T01:38:49.530Z,8.20
2022-09-30T01:41:26.558Z,8.10
2022-09-30T01:44:04.186Z,8.10
2022-09-30T01:46:38.425Z,8.10
2022-09-30T01:49:13.739Z,8.10
2022-09-30T01:51:46.551Z,8.00
2022-09-30T01:54:21.268Z,8.00
2022-09-30T01:56:53.928Z,8.00
2022-09-30T01:59:26.141Z,8.10
2022-09-30T02:01:59.488Z,8.10
2022-09-30T02:04:32.823Z,8.20
2022-09-30T02:07:03.641Z,8.20
2022-09-30T02:09:36.433Z,8.20
2022-09-30T02:12:07.487Z,8.20
2022-09-30T02:14:41.891Z,8.20
2022-09-30T02:17:15.018Z,8.20
2022-09-30T02:19:47.120Z,8.20
2022-09-30T02:22:19.536Z,8.10
2022-09-30T02:24:50.151Z,8.10
2022-09-30T02:27:22.260Z,8.10
2022-09-30T02:29:54.648Z,8.10
2022-09-30T02:32:28.153Z,8.00
2022-09-30T02:35:01.592Z,8.00
2022-09-30T02:37:35.059Z,8.00
2022-09-30T02:40:07.589Z,8.10
2022-09-30T02:42:35.964Z,8.10
2022-09-30T02:45:08.697Z,8.10
2022-09-30T02:47:50.223Z,8.00
2022-09-30T02:50:27.384Z,8.00
2022-09-30T02:53:07.990Z,7.90
2022-09-30T02:55:45.936Z,7.90
2022-09-30T02:58:17.001Z,7.80
2022-09-30T03:00:45.074Z,7.80
2022-09-30T03:03:21.312Z,7.80
2022-09-30T03:05:51.081Z,7.70
2022-09-30T03:08:19.631Z,7.70
2022-09-30T03:10:51.297Z,7.70
2022-09-30T03:13:55.872Z,7.70
2022-09-30T03:16:38.129Z,7.70
2022-09-30T03:19:24.310Z,7.70
2022-09-30T03:22:07.726Z,7.70
2022-09-30T03:24:53.512Z,7.70
2022-09-30T03:27:33.473Z,7.70
2022-09-30T03:30:05.501Z,7.80
2022-09-30T03:32:46.884Z,7.70
2022-09-30T03:35:27.148Z,7.80
2022-09-30T03:38:05.104Z,7.80
2022-09-30T03:40:42.373Z,7.80
2022-09-30T03:43:19.190Z,7.70
2022-09-30T03:45:54.922Z,7.70
2022-09-30T03:48:25.263Z,7.70
2022-09-30T03:50:55.974Z,7.70
2022-09-30T03:53:26.150Z,7.70
2022-09-30T03:55:54.595Z,7.60
2022-09-30T03:58:24.320Z,7.60
2022-09-30T04:00:54.353Z,7.60
2022-09-30T04:03:24.165Z,7.60
2022-09-30T04:05:52.488Z,7.60
2022-09-30T04:08:22.957Z,7.60
2022-09-30T04:10:51.081Z,7.60
2022-09-30T04:13:19.066Z,7.50
2022-09-30T04:15:55.199Z,7.60
2022-09-30T04:18:23.240Z,7.60
2022-09-30T04:20:51.467Z,7.70
2022-09-30T04:23:20.767Z,7.70
2022-09-30T04:25:53.608Z,7.70
2022-09-30T04:28:21.614Z,7.60
2022-09-30T04:30:49.787Z,7.60
2022-09-30T04:33:17.814Z,7.60
2022-09-30T04:35:45.973Z,7.60
2022-09-30T04:38:13.959Z,7.60
2022-09-30T04:40:43.263Z,7.50
2022-09-30T04:43:11.486Z,7.50
2022-09-30T04:45:44.571Z,7.50
2022-09-30T04:48:13.131Z,7.50
2022-09-30T04:50:41.170Z,7.50
2022-09-30T04:53:09.498Z,7.40
2022-09-30T04:55:37.520Z,7.40
2022-09-30T04:58:07.206Z,7.40
2022-09-30T05:00:35.301Z,7.40
2022-09-30T05:03:03.744Z,7.40
2022-09-30T05:05:31.972Z,7.30
2022-09-30T05:08:02.238Z,7.40
2022-09-30T05:10:30.745Z,7.40
2022-09-30T05:12:59.031Z,7.40
2022-09-30T05:15:29.433Z,7.50
2022-09-30T05:17:57.719Z,7.50
2022-09-30T05:20:25.705Z,7.50
2022-09-30T05:22:56.344Z,7.50
2022-09-30T05:25:24.570Z,7.50
2022-09-30T05:27:52.900Z,7.50
2022-09-30T05:30:20.899Z,7.40
2022-09-30T05:32:51.310Z,7.40
2022-09-30T05:35:19.255Z,7.40
2022-09-30T05:37:47.466Z,7.40
2022-09-30T05:40:15.504Z,7.40
2022-09-30T05:42:47.410Z,7.40
2022-09-30T05:45:15.491Z,7.40
2022-09-30T05:47:43.672Z,7.40
2022-09-30T05:50:12.996Z,7.40
2022-09-30T05:52:41.185Z,7.40
2022-09-30T05:55:09.993Z,7.40
2022-09-30T05:57:38.130Z,7.50
2022-09-30T06:00:07.102Z,7.40
2022-09-30T06:02:39.921Z,7.50
2022-09-30T06:05:08.566Z,7.50
2022-09-30T06:07:38.925Z,7.40
2022-09-30T06:10:12.176Z,7.50
2022-09-30T06:12:40.757Z,7.50
2022-09-30T06:15:10.118Z,7.50
2022-09-30T06:17:38.344Z,7.60
2022-09-30T06:20:07.065Z,7.60
2022-09-30T06:22:36.952Z,7.60
2022-09-30T06:25:06.817Z,7.60
2022-09-30T06:27:35.372Z,7.70
2022-09-30T06:30:03.563Z,7.80
2022-09-30T06:32:31.513Z,7.90
2022-09-30T06:34:59.767Z,8.00
2022-09-30T06:37:27.723Z,8.10
2022-09-30T06:39:57.242Z,8.20
2022-09-30T06:42:25.379Z,8.30
2022-09-30T06:44:54.036Z,8.40
2022-09-30T06:47:25.562Z,8.60
2022-09-30T06:49:58.716Z,8.70
2022-09-30T06:52:27.431Z,8.80
2022-09-30T06:54:57.630Z,8.90
2022-09-30T06:57:27.753Z,9.20
2022-09-30T06:59:56.343Z,9.60
2022-09-30T07:02:24.486Z,10.60
2022-09-30T07:04:52.713Z,11.40
2022-09-30T07:07:22.261Z,11.90
2022-09-30T07:09:50.618Z,12.40
2022-09-30T07:12:20.081Z,13.00
2022-09-30T07:14:48.380Z,13.60
2022-09-30T07:17:16.349Z,14.60
2022-09-30T07:19:44.578Z,15.70
2022-09-30T07:22:34.568Z,16.90
2022-09-30T07:25:04.196Z,17.90
2022-09-30T07:27:35.254Z,19.30
2022-09-30T07:30:09.754Z,20.30
2022-09-30T07:32:39.581Z,21.60
2022-09-30T07:35:08.394Z,23.10
2022-09-30T07:37:37.025Z,24.00
2022-09-30T07:40:08.536Z,24.30
2022-09-30T07:42:45.866Z,23.80
2022-09-30T07:45:16.084Z,22.80
2022-09-30T07:47:44.066Z,21.70
2022-09-30T07:50:15.584Z,20.70
2022-09-30T07:52:43.720Z,19.60
2022-09-30T07:58:18.289Z,18.20
2022-09-30T08:01:01.094Z,17.70
2022-09-30T08:03:29.219Z,17.40
2022-09-30T08:05:57.397Z,17.20
2022-09-30T08:08:25.401Z,17.10
2022-09-30T08:10:53.592Z,17.10
2022-09-30T08:13:22.935Z,16.90
2022-09-30T08:15:51.242Z,16.90
2022-09-30T08:18:19.301Z,17.30
2022-09-30T08:20:47.356Z,17.60
2022-09-30T08:23:15.754Z,18.30
2022-09-30T08:25:43.849Z,19.10
2022-09-30T08:28:12.184Z,20.20
2022-09-30T08:30:42.130Z,21.40
2022-09-30T08:33:10.224Z,22.90
2022-09-30T08:35:38.171Z,24.40
2022-09-30T08:38:06.746Z,25.40
2022-09-30T08:40:37.851Z,26.70
2022-09-30T08:43:19.680Z,28.10
2022-09-30T08:45:57.600Z,29.40
2022-09-30T08:48:37.211Z,30.60
2022-09-30T08:51:15.837Z,31.90
2022-09-30T08:53:46.964Z,33.00
2022-09-30T08:56:23.372Z,34.00
2022-09-30T08:58:55.496Z,34.70
2022-09-30T09:01:31.354Z,36.20
2022-09-30T09:04:00.462Z,37.50
2022-09-30T09:06:34.113Z,38.60
2022-09-30T09:09:27.027Z,38.30
2022-09-30T09:12:08.419Z,37.00
2022-09-30T09:14:44.324Z,37.70
2022-09-30T09:17:27.911Z,38.40
2022-09-30T09:20:02.075Z,38.90
2022-09-30T09:22:31.489Z,39.30
2022-09-30T09:25:03.038Z,38.50
2022-09-30T09:27:42.807Z,39.60
2022-09-30T09:30:13.348Z,41.00
2022-09-30T09:32:43.804Z,41.80
2022-09-30T09:35:16.759Z,42.70
2022-09-30T09:38:14.392Z,43.70
2022-09-30T09:40:57.396Z,44.50
2022-09-30T09:43:39.171Z,42.90
2022-09-30T09:46:14.498Z,42.90
2022-09-30T09:48:44.915Z,42.90
2022-09-30T09:51:22.639Z,42.70
2022-09-30T09:53:52.927Z,42.30
2022-09-30T09:56:23.145Z,42.60
2022-09-30T09:59:14.627Z,41.40
2022-09-30T10:01:45.875Z,42.70
2022-09-30T10:04:19.392Z,43.80
2022-09-30T10:06:54.419Z,44.80
2022-09-30T10:09:34.692Z,43.70
2022-09-30T10:12:30.343Z,41.50
2022-09-30T10:15:05.496Z,39.50
2022-09-30T10:17:35.470Z,39.10
2022-09-30T10:20:08.761Z,38.80
2022-09-30T10:22:37.636Z,39.90
2022-09-30T10:25:23.209Z,40.50
2022-09-30T10:27:57.196Z,40.90
2022-09-30T10:30:45.586Z,41.10
2022-09-30T10:33:23.422Z,41.30
2022-09-30T10:35:57.173Z,39.70
2022-09-30T10:38:29.395Z,37.90
2022-09-30T10:40:58.236Z,36.10
2022-09-30T10:43:31.252Z,34.30
2022-09-30T10:46:24.752Z,32.90
2022-09-30T10:48:54.887Z,33.30
2022-09-30T10:51:30.701Z,33.70
2022-09-30T10:53:58.944Z,33.60
2022-09-30T10:56:44.653Z,33.30
2022-09-30T10:59:30.286Z,33.20
2022-09-30T11:02:06.406Z,33.50
2022-09-30T11:04:40.402Z,34.90
2022-09-30T11:07:22.754Z,34.90
2022-09-30T11:09:57.925Z,34.10
2022-09-30T11:12:36.136Z,33.10
2022-09-30T11:15:12.257Z,31.90
2022-09-30T11:17:48.068Z,32.00
2022-09-30T11:20:22.607Z,32.50
2022-09-30T11:22:56.259Z,32.90
2022-09-30T11:25:27.258Z,32.00
2022-09-30T11:28:14.359Z,30.90
2022-09-30T11:30:53.153Z,29.50
2022-09-30T11:33:41.645Z,28.90
2022-09-30T11:36:19.875Z,29.80
2022-09-30T11:39:28.895Z,31.60
2022-09-30T11:42:04.228Z,32.40
2022-09-30T11:44:35.705Z,32.70
2022-09-30T11:47:22.021Z,33.30
2022-09-30T11:50:11.160Z,34.70
2022-09-30T11:52:50.932Z,35.60
2022-09-30T11:55:37.425Z,36.50
2022-09-30T11:58:36.133Z,37.70
2022-09-30T12:01:01.748Z,37.10
2022-09-30T12:03:35.957Z,36.20
2022-09-30T12:06:11.456Z,36.30
2022-09-30T12:08:45.478Z,36.20
2022-09-30T12:11:19.582Z,36.90
2022-09-30T12:13:53.056Z,36.20
2022-09-30T12:16:25.909Z,35.50
2022-09-30T12:18:58.882Z,33.80
2022-09-30T12:21:33.577Z,32.80
2022-09-30T12:24:08.826Z,31.80
2022-09-30T12:26:41.413Z,31.40
2022-09-30T12:29:34.285Z,30.00
2022-09-30T12:32:19.226Z,28.30
2022-09-30T12:35:02.136Z,26.20
2022-09-30T12:37:47.609Z,25.60
2022-09-30T12:40:52.392Z,25.60
2022-09-30T12:43:59.171Z,26.30
2022-09-30T12:46:46.020Z,27.70
2022-09-30T12:49:19.913Z,29.10
2022-09-30T12:51:52.246Z,31.00
2022-09-30T12:54:23.597Z,31.80
2022-09-30T12:56:56.454Z,31.40
2022-09-30T12:59:30.490Z,32.20
2022-09-30T13:01:59.641Z,31.70
2022-09-30T13:04:34.398Z,31.90
2022-09-30T13:07:20.229Z,32.00
2022-09-30T13:10:03.715Z,31.20
2022-09-30T13:12:43.511Z,30.60
2022-09-30T13:15:43.573Z,29.50
2022-09-30T13:18:49.758Z,27.70
2022-09-30T13:21:21.419Z,26.80
2022-09-30T13:23:50.635Z,25.80
2022-09-30T13:26:40.361Z,24.90
2022-09-30T13:29:39.294Z,24.20
2022-09-30T13:32:10.533Z,23.00
2022-09-30T13:34:58.387Z,23.10
2022-09-30T13:37:39.089Z,23.10
2022-09-30T13:40:32.897Z,23.10
2022-09-30T13:43:17.435Z,22.20
2022-09-30T13:45:45.890Z,21.90
2022-09-30T13:48:20.465Z,21.60
2022-09-30T13:50:50.934Z,21.40
2022-09-30T13:53:26.246Z,21.20
2022-09-30T13:55:56.027Z,21.20
2022-09-30T13:58:41.303Z,21.10
2022-09-30T14:01:22.323Z,20.90
2022-09-30T14:04:09.409Z,20.70
2022-09-30T14:06:47.727Z,20.30
2022-09-30T14:09:31.772Z,20.00
2022-09-30T14:12:26.755Z,19.90
2022-09-30T14:15:27.559Z,19.50
2022-09-30T14:18:38.479Z,19.20
2022-09-30T14:21:21.749Z,19.00
2022-09-30T14:23:58.335Z,18.90
2022-09-30T14:26:49.238Z,18.90
2022-09-30T14:29:27.916Z,18.70
2022-09-30T14:31:56.425Z,18.70
2022-09-30T14:34:27.329Z,18.60
2022-09-30T14:36:57.165Z,18.60
2022-09-30T14:39:29.999Z,18.60
2022-09-30T14:42:02.144Z,18.50
2022-09-30T14:44:34.451Z,18.40
2022-09-30T14:47:04.418Z,18.40
2022-09-30T14:49:34.662Z,18.20
2022-09-30T14:52:05.596Z,17.80
2022-09-30T14:54:34.546Z,17.60
2022-09-30T14:57:04.528Z,17.30
2022-09-30T14:59:34.494Z,17.00
2022-09-30T15:02:05.228Z,16.90
2022-09-30T15:04:36.343Z,16.80
2022-09-30T15:07:10.721Z,16.80
2022-09-30T15:09:42.169Z,16.70
2022-09-30T15:12:14.074Z,16.60
2022-09-30T15:14:48.363Z,16.50
2022-09-30T15:17:20.310Z,16.40
2022-09-30T15:19:50.357Z,16.30
2022-09-30T15:22:21.706Z,16.30
2022-09-30T15:24:52.113Z,16.00
2022-09-30T15:27:23.674Z,16.00
2022-09-30T15:29:56.028Z,15.80
2022-09-30T15:32:27.505Z,15.80
2022-09-30T15:34:58.551Z,15.70
2022-09-30T15:37:33.435Z,15.80
2022-09-30T15:40:20.810Z,15.70
2022-09-30T15:42:56.295Z,15.60
2022-09-30T15:45:35.025Z,15.50
2022-09-30T15:48:06.147Z,15.40
2022-09-30T15:50:42.312Z,15.40
2022-09-30T15:53:24.947Z,15.30
2022-09-30T15:55:55.506Z,15.30
2022-09-30T15:58:38.732Z,15.20
2022-09-30T16:01:21.564Z,15.10
2022-09-30T16:03:55.826Z,15.00
2022-09-30T16:06:28.014Z,15.00
2022-09-30T16:09:01.554Z,15.00
2022-09-30T16:11:34.703Z,14.90
2022-09-30T16:14:05.572Z,14.90
2022-09-30T16:16:36.031Z,14.80
2022-09-30T16:19:05.333Z,14.70
2022-09-30T16:21:45.190Z,14.60
2022-09-30T16:24:49.392Z,14.50
2022-09-30T16:27:29.230Z,14.40
2022-09-30T16:29:57.832Z,14.30
2022-09-30T16:32:27.888Z,14.20
2022-09-30T16:34:56.164Z,14.00
2022-09-30T16:37:24.270Z,13.90
2022-09-30T16:39:53.738Z,13.80
2022-09-30T16:42:21.852Z,13.70
2022-09-30T16:44:49.838Z,13.60
2022-09-30T16:47:19.495Z,13.50
2022-09-30T16:49:48.008Z,13.50
2022-09-30T16:52:16.005Z,13.40
2022-09-30T16:54:44.049Z,13.40
2022-09-30T16:57:16.219Z,13.30
2022-09-30T16:59:44.506Z,13.30
2022-09-30T17:02:15.720Z,13.20
2022-09-30T17:04:45.454Z,13.10
2022-09-30T17:07:14.959Z,13.10
2022-09-30T17:09:46.019Z,13.00
2022-09-30T17:12:15.389Z,12.90
2022-09-30T17:14:43.982Z,12.90
2022-09-30T17:17:13.567Z,12.80
2022-09-30T17:19:42.114Z,12.80
2022-09-30T17:22:10.164Z,12.70
2022-09-30T17:24:38.424Z,12.70
2022-09-30T17:27:07.898Z,12.70
2022-09-30T17:29:41.688Z,12.70
2022-09-30T17:32:10.175Z,12.60
2022-09-30T17:34:38.178Z,12.50
2022-09-30T17:39:39.408Z,12.40
2022-09-30T17:42:25.382Z,12.40
2022-09-30T17:44:54.749Z,12.40
2022-09-30T17:47:23.112Z,12.30
2022-09-30T17:49:51.368Z,12.30
2022-09-30T17:52:19.503Z,12.30
2022-09-30T17:54:52.018Z,12.20
2022-09-30T17:57:20.535Z,12.20
2022-09-30T17:59:48.574Z,12.20
2022-09-30T18:02:18.237Z,12.20
2022-09-30T18:04:46.542Z,12.10
2022-09-30T18:07:14.584Z,12.10
2022-09-30T18:09:42.655Z,12.10
2022-09-30T18:12:10.671Z,12.00
2022-09-30T18:14:38.666Z,12.00
2022-09-30T18:17:07.492Z,12.00
2022-09-30T18:19:37.062Z,11.90
2022-09-30T18:22:05.301Z,11.90
2022-09-30T18:24:50.724Z,11.90
2022-09-30T18:27:21.364Z,11.90
2022-09-30T18:29:50.044Z,11.80
2022-09-30T18:32:18.449Z,11.80
2022-09-30T18:34:47.810Z,11.70
2022-09-30T18:37:15.812Z,11.70
2022-09-30T18:39:43.843Z,11.60
2022-09-30T18:42:12.048Z,11.60
2022-09-30T18:44:40.148Z,11.60
2022-09-30T18:47:08.209Z,11.60
2022-09-30T18:49:36.277Z,11.50
2022-09-30T18:52:05.681Z,11.50
2022-09-30T18:54:33.947Z,11.40
2022-09-30T18:57:02.238Z,11.40
2022-09-30T18:59:30.181Z,11.40
2022-09-30T19:02:00.287Z,11.30
2022-09-30T19:04:28.619Z,11.30
2022-09-30T19:06:56.602Z,11.30
2022-09-30T19:09:27.161Z,11.30
2022-09-30T19:11:55.773Z,11.40
2022-09-30T19:14:24.859Z,11.30
2022-09-30T19:16:53.091Z,11.40
2022-09-30T19:19:23.171Z,11.30
2022-09-30T19:21:51.255Z,11.40
2022-09-30T19:24:21.895Z,11.40
2022-09-30T19:26:53.597Z,11.30
2022-09-30T19:29:21.572Z,11.30
2022-09-30T19:31:49.581Z,11.20
2022-09-30T19:34:29.652Z,11.20
2022-09-30T19:37:00.106Z,11.20
2022-09-30T19:39:41.300Z,11.10
2022-09-30T19:42:16.925Z,11.10
2022-09-30T19:44:44.947Z,11.10
2022-09-30T19:47:13.099Z,11.00
2022-09-30T19:49:41.057Z,11.00
2022-09-30T19:52:17.728Z,11.00
2022-09-30T19:54:48.837Z,11.00
2022-09-30T19:57:18.333Z,10.90
2022-09-30T19:59:46.292Z,10.90
2022-09-30T20:02:14.299Z,10.90
2022-09-30T20:04:43.805Z,10.90
2022-09-30T20:07:11.847Z,10.80
2022-09-30T20:09:40.204Z,10.80
2022-09-30T20:12:08.202Z,10.80
2022-09-30T20:14:55.135Z,10.90
2022-09-30T20:17:23.474Z,10.80
2022-09-30T20:20:05.505Z,10.80
2022-09-30T20:22:33.480Z,10.80
2022-09-30T20:25:01.643Z,10.90
2022-09-30T20:27:32.954Z,10.80
2022-09-30T20:30:02.349Z,10.80
2022-09-30T20:32:31.239Z,10.80
2022-09-30T20:34:59.420Z,10.80
2022-09-30T20:37:27.569Z,10.80
2022-09-30T20:39:57.634Z,10.80
2022-09-30T20:42:32.803Z,10.70
2022-09-30T20:45:02.683Z,10.70
2022-09-30T20:47:30.803Z,10.70
2022-09-30T20:49:59.429Z,10.60
2022-09-30T20:52:28.776Z,10.70
2022-09-30T20:54:59.381Z,10.70
2022-09-30T20:57:30.115Z,10.80
2022-09-30T20:59:59.686Z,10.80
2022-09-30T21:02:29.687Z,10.80
2022-09-30T21:04:58.656Z,10.80
2022-09-30T21:07:27.595Z,10.80
2022-09-30T21:09:55.618Z,10.90
2022-09-30T21:12:23.830Z,10.90
2022-09-30T21:14:51.849Z,11.00
2022-09-30T21:17:19.804Z,11.00
2022-09-30T21:19:49.178Z,11.10
2022-09-30T21:22:17.547Z,11.10
2022-09-30T21:24:45.669Z,11.10
2022-09-30T21:27:13.792Z,11.10
2022-09-30T21:29:41.782Z,11.20
2022-09-30T21:32:09.870Z,11.20
2022-09-30T21:34:38.805Z,11.20
2022-09-30T21:37:08.232Z,11.20
2022-09-30T21:39:36.213Z,11.10
2022-09-30T21:42:04.776Z,11.10
2022-09-30T21:44:32.804Z,11.10
2022-09-30T21:47:00.807Z,11.20
2022-09-30T21:49:28.834Z,11.20
2022-09-30T21:51:57.669Z,11.20
2022-09-30T21:54:28.921Z,11.20
2022-09-30T21:56:57.125Z,11.20
2022-09-30T21:59:25.582Z,11.20
2022-09-30T22:01:53.689Z,11.20
2022-09-30T22:04:21.691Z,11.30
2022-09-30T22:06:49.757Z,11.30
2022-09-30T22:09:17.774Z,11.30
2022-09-30T22:11:49.648Z,11.40
2022-09-30T22:14:17.908Z,11.40
2022-09-30T22:16:45.977Z,11.40
2022-09-30T22:19:14.571Z,11.40
2022-09-30T22:21:42.619Z,11.40
2022-09-30T22:24:10.813Z,11.50
2022-09-30T22:26:40.093Z,11.60
2022-09-30T22:29:11.956Z,11.50
2022-09-30T22:31:40.404Z,11.50
2022-09-30T22:34:29.422Z,11.50
2022-09-30T22:37:14.785Z,11.50
2022-09-30T22:39:43.127Z,11.50
2022-09-30T22:42:11.493Z,11.40
2022-09-30T22:44:40.824Z,11.40
2022-09-30T22:47:10.596Z,11.40
2022-09-30T22:49:38.555Z,11.40
2022-09-30T22:52:07.148Z,11.50
2022-09-30T22:54:36.134Z,11.60
2022-09-30T22:57:05.577Z,11.60
2022-09-30T22:59:33.512Z,11.60
2022-09-30T23:02:04.961Z,11.60
2022-09-30T23:04:33.379Z,11.60
2022-09-30T23:07:01.549Z,11.60
2022-09-30T23:09:31.094Z,11.60
2022-09-30T23:11:59.153Z,11.50
2022-09-30T23:14:27.094Z,11.50
2022-09-30T23:16:55.453Z,11.40
2022-09-30T23:19:24.860Z,11.40
2022-09-30T23:21:52.959Z,11.40
2022-09-30T23:24:21.073Z,11.30
2022-09-30T23:26:49.805Z,11.30
2022-09-30T23:29:18.143Z,11.30
2022-09-30T23:31:46.175Z,11.30
2022-09-30T23:34:14.534Z,11.30
2022-09-30T23:36:43.885Z,11.30
2022-09-30T23:39:18.178Z,11.30
2022-09-30T23:41:47.738Z,11.30
2022-09-30T23:44:17.934Z,11.30
2022-09-30T23:47:00.164Z,11.30
2022-09-30T23:49:28.387Z,11.30
2022-09-30T23:51:57.712Z,11.30
2022-09-30T23:54:25.813Z,11.30
2022-09-30T23:56:53.982Z,11.30
2022-09-30T23:59:21.928Z,11.30
